Time;durP1;ratioP1;P1;durP2;ratioP2;P2;SDS_P1;SDS_P2;PMS_P1;PMS_P2;Temp;Humidity;BMP_temperature;BMP_pressure;BME280_temperature;BME280_humidity;BME280_pressure;Samples;Min_cycle;Max_cycle;Signal;HPM_P1;HPM_P2
2023/08/24 00:00:55;;;;;;;30.93;9.17;;;21.10;37.50;;;;;;5022895;28;46405;-66
2023/08/24 00:03:22;;;;;;;19.67;8.40;;;21.00;37.50;;;;;;5025519;28;46468;-66
2023/08/24 00:05:48;;;;;;;15.17;8.27;;;21.10;37.70;;;;;;5022635;28;46507;-68
2023/08/24 00:08:14;;;;;;;22.47;9.07;;;20.90;36.70;;;;;;5031641;28;46717;-67
2023/08/24 00:10:43;;;;;;;15.90;9.00;;;20.90;38.20;;;;;;5021244;28;47233;-66
2023/08/24 00:15:49;;;;;;;17.47;9.10;;;;;;;;;;5018256;27;46587;-67
2023/08/24 00:18:16;;;;;;;17.57;9.20;;;20.80;37.80;;;;;;5018234;27;46464;-66
2023/08/24 00:20:44;;;;;;;12.93;9.00;;;;;;;;;;5017024;27;46509;-68
2023/08/24 00:23:09;;;;;;;14.27;8.90;;;20.70;38.10;;;;;;5019605;27;46397;-67
2023/08/24 00:25:35;;;;;;;14.50;9.97;;;20.60;38.30;;;;;;5017231;27;46703;-67
2023/08/24 00:28:01;;;;;;;13.87;10.10;;;;;;;;;;5019821;27;46604;-67
2023/08/24 00:30:27;;;;;;;11.33;8.77;;;20.60;38.80;;;;;;5020150;27;46739;-68
2023/08/24 00:32:53;;;;;;;14.13;9.60;;;;;;;;;;5017300;27;46823;-67
2023/08/24 00:35:18;;;;;;;15.93;9.30;;;20.50;39.40;;;;;;5019173;27;48209;-67
2023/08/24 00:37:44;;;;;;;14.70;10.27;;;;;;;;;;5016315;27;46536;-67
2023/08/24 00:40:10;;;;;;;14.40;10.07;;;;;;;;;;5016255;27;46636;-67
2023/08/24 00:42:41;;;;;;;18.50;10.80;;;20.30;39.00;;;;;;5016757;27;46555;-67
2023/08/24 00:45:09;;;;;;;21.73;11.37;;;20.50;39.40;;;;;;5017949;27;47019;-67
2023/08/24 00:47:36;;;;;;;15.60;10.83;;;20.50;39.70;;;;;;5015738;27;45900;-67
2023/08/24 00:50:03;;;;;;;17.00;10.80;;;20.40;40.00;;;;;;5019343;27;46676;-67
2023/08/24 00:52:31;;;;;;;20.90;11.17;;;20.50;39.80;;;;;;5018606;27;46341;-67
2023/08/24 00:55:01;;;;;;;19.50;11.80;;;20.40;40.00;;;;;;5018012;27;46445;-67
2023/08/24 00:57:28;;;;;;;15.27;10.60;;;20.40;39.90;;;;;;5017958;27;46441;-67
2023/08/24 00:59:58;;;;;;;19.43;11.10;;;20.50;39.70;;;;;;5016860;27;45952;-67
2023/08/24 01:02:24;;;;;;;17.23;10.87;;;20.50;40.80;;;;;;5020978;27;46589;-67
2023/08/24 01:04:49;;;;;;;16.90;10.90;;;20.50;40.70;;;;;;5017434;27;46378;-67
2023/08/24 01:07:16;;;;;;;17.53;11.97;;;20.50;39.90;;;;;;5018424;27;45937;-66
2023/08/24 01:09:42;;;;;;;20.40;12.27;;;20.50;40.70;;;;;;5015837;27;46624;-67
2023/08/24 01:12:26;;;;;;;19.60;11.93;;;20.60;40.70;;;;;;5018045;27;46413;-66
2023/08/24 01:15:20;;;;;;;19.87;11.37;;;20.70;41.10;;;;;;5016425;27;46643;-67
2023/08/24 01:17:47;;;;;;;17.30;10.87;;;20.60;41.10;;;;;;5015743;27;46473;-67
2023/08/24 01:20:15;;;;;;;23.00;11.80;;;20.70;40.70;;;;;;5018558;27;46439;-67
2023/08/24 01:23:13;;;;;;;25.93;11.80;;;20.70;40.50;;;;;;5018867;27;46264;-66
2023/08/24 01:25:48;;;;;;;15.40;10.60;;;20.80;40.60;;;;;;5013165;27;47061;-66
2023/08/24 01:28:14;;;;;;;13.40;9.63;;;20.80;40.20;;;;;;5004537;27;46476;-67
2023/08/24 01:30:40;;;;;;;13.43;10.10;;;20.90;40.10;;;;;;5006395;27;45930;-68
2023/08/24 01:33:11;;;;;;;15.17;10.83;;;20.90;40.10;;;;;;5005374;27;46675;-67
2023/08/24 01:35:37;;;;;;;13.23;10.10;;;20.90;40.00;;;;;;5002234;27;47355;-67
2023/08/24 01:38:04;;;;;;;13.63;9.70;;;20.90;40.10;;;;;;5004062;27;46464;-68
2023/08/24 01:41:08;;;;;;;16.10;10.23;;;20.80;40.30;;;;;;5004144;27;46449;-67
2023/08/24 01:43:36;;;;;;;12.87;9.10;;;20.80;40.60;;;;;;5028026;27;46815;-66
2023/08/24 01:46:07;;;;;;;22.93;10.77;;;20.80;39.40;;;;;;5006054;27;46271;-66
2023/08/24 01:48:33;;;;;;;14.03;9.47;;;20.80;40.50;;;;;;5002239;27;45833;-66
2023/08/24 01:51:00;;;;;;;12.60;9.40;;;20.80;40.60;;;;;;5002667;27;46421;-65
2023/08/24 01:53:28;;;;;;;14.40;10.90;;;20.70;40.70;;;;;;5000207;27;46437;-68
2023/08/24 01:55:53;;;;;;;15.73;9.80;;;20.70;39.90;;;;;;5004938;27;46486;-67
2023/08/24 01:58:20;;;;;;;14.77;10.47;;;20.70;41.00;;;;;;5004582;27;46378;-67
2023/08/24 02:00:45;;;;;;;14.37;9.33;;;20.60;41.10;;;;;;5003270;27;46374;-68
2023/08/24 02:03:11;;;;;;;15.20;9.33;;;20.60;41.40;;;;;;5005647;27;45981;-67
2023/08/24 02:05:36;;;;;;;16.57;10.03;;;20.50;41.50;;;;;;5003745;27;46726;-68
2023/08/24 02:08:02;;;;;;;25.03;10.10;;;20.50;41.70;;;;;;4999643;27;46523;-66
2023/08/24 02:10:28;;;;;;;15.27;10.00;;;20.50;42.00;;;;;;5005406;27;46553;-66
2023/08/24 02:12:53;;;;;;;15.27;10.53;;;20.40;42.20;;;;;;5001505;27;46295;-67
2023/08/24 02:15:19;;;;;;;16.70;10.07;;;20.40;42.60;;;;;;5000933;27;46803;-66
2023/08/24 02:17:45;;;;;;;14.20;10.20;;;20.30;43.00;;;;;;5001283;27;46472;-68
2023/08/24 02:20:13;;;;;;;19.07;10.03;;;20.30;43.20;;;;;;5003924;27;46482;-68
2023/08/24 02:22:39;;;;;;;16.83;10.57;;;20.30;43.30;;;;;;5002499;27;46576;-68
2023/08/24 02:25:05;;;;;;;15.57;10.20;;;20.20;43.30;;;;;;4999898;27;46621;-67
2023/08/24 02:27:32;;;;;;;17.80;10.20;;;20.20;43.40;;;;;;5002742;27;46483;-67
2023/08/24 02:29:57;;;;;;;13.40;8.77;;;20.20;43.50;;;;;;5003441;27;46751;-68
2023/08/24 02:32:23;;;;;;;15.47;9.90;;;20.20;43.40;;;;;;5004897;27;46688;-68
2023/08/24 02:34:48;;;;;;;17.30;10.63;;;20.10;43.40;;;;;;5002563;27;46915;-67
2023/08/24 02:37:14;;;;;;;12.80;9.83;;;20.10;43.40;;;;;;5002078;27;46699;-67
2023/08/24 02:39:40;;;;;;;13.80;9.67;;;20.10;43.40;;;;;;5006489;27;46377;-67
2023/08/24 02:42:05;;;;;;;14.10;9.93;;;20.10;43.50;;;;;;5003243;27;46872;-67
2023/08/24 02:44:31;;;;;;;12.67;10.23;;;20.10;43.50;;;;;;5004971;27;46485;-67
2023/08/24 02:46:57;;;;;;;17.20;9.13;;;20.10;43.40;;;;;;5002211;27;46579;-67
2023/08/24 02:49:23;;;;;;;15.40;10.47;;;20.10;43.50;;;;;;5005356;27;46456;-67
2023/08/24 02:51:48;;;;;;;16.60;10.03;;;20.10;43.50;;;;;;5005180;27;46488;-67
2023/08/24 02:54:14;;;;;;;23.53;12.10;;;20.00;43.50;;;;;;5002700;27;46001;-68
2023/08/24 02:56:39;;;;;;;18.77;11.77;;;20.00;43.40;;;;;;5001365;27;46715;-66
2023/08/24 02:59:05;;;;;;;14.37;11.00;;;20.00;43.50;;;;;;5005343;27;45849;-66
2023/08/24 03:01:31;;;;;;;18.03;12.03;;;20.00;43.70;;;;;;5003562;27;46563;-67
2023/08/24 03:03:56;;;;;;;17.53;10.47;;;19.90;43.80;;;;;;5003580;27;46165;-67
2023/08/24 03:06:24;;;;;;;17.00;11.03;;;19.90;44.00;;;;;;5003442;27;46466;-66
2023/08/24 03:08:49;;;;;;;13.70;9.70;;;19.90;44.20;;;;;;5003759;27;46486;-67
2023/08/24 03:11:15;;;;;;;20.97;10.60;;;19.90;44.30;;;;;;5005103;27;46517;-67
2023/08/24 03:13:41;;;;;;;17.33;11.13;;;19.80;44.10;;;;;;5005036;27;47590;-67
2023/08/24 03:16:08;;;;;;;19.43;11.27;;;19.80;43.30;;;;;;5003417;27;46437;-67
2023/08/24 03:18:33;;;;;;;23.33;10.53;;;19.80;44.30;;;;;;5004107;27;46668;-67
2023/08/24 03:20:59;;;;;;;15.10;10.73;;;19.80;44.50;;;;;;5006056;27;46615;-67
2023/08/24 03:23:25;;;;;;;12.73;10.23;;;19.70;44.60;;;;;;5004278;27;46421;-66
2023/08/24 03:25:51;;;;;;;16.43;10.57;;;19.70;44.80;;;;;;5003635;27;46310;-67
2023/08/24 03:28:16;;;;;;;18.40;11.00;;;19.70;45.00;;;;;;5002973;27;46399;-68
2023/08/24 03:30:48;;;;;;;15.00;10.53;;;19.70;45.00;;;;;;5003364;27;46618;-69
2023/08/24 03:33:13;;;;;;;18.13;11.27;;;19.90;45.30;;;;;;5002711;27;46429;-67
2023/08/24 03:35:40;;;;;;;17.23;10.50;;;19.60;45.00;;;;;;5005427;27;46531;-66
2023/08/24 03:38:05;;;;;;;24.43;12.00;;;19.60;45.10;;;;;;5003350;27;46592;-68
2023/08/24 03:40:31;;;;;;;21.40;11.90;;;19.60;45.30;;;;;;5002461;27;46524;-67
2023/08/24 03:42:57;;;;;;;16.07;11.23;;;19.60;45.60;;;;;;5002867;27;46807;-67
2023/08/24 03:45:22;;;;;;;14.40;10.60;;;19.60;45.80;;;;;;5007120;27;46558;-67
2023/08/24 03:47:48;;;;;;;16.60;10.87;;;19.60;47.10;;;;;;5002346;27;46532;-66
2023/08/24 03:50:14;;;;;;;18.10;10.10;;;19.60;47.10;;;;;;5004793;27;46481;-67
2023/08/24 03:52:40;;;;;;;14.63;10.27;;;19.50;45.90;;;;;;5002132;27;46528;-67
2023/08/24 03:55:06;;;;;;;21.43;11.10;;;19.50;46.10;;;;;;5003383;27;46534;-67
2023/08/24 03:57:32;;;;;;;17.47;11.33;;;19.50;46.40;;;;;;5001660;27;46588;-67
2023/08/24 03:59:58;;;;;;;18.47;11.27;;;19.50;46.60;;;;;;5001071;27;46475;-66
2023/08/24 04:02:23;;;;;;;21.80;11.50;;;19.50;46.70;;;;;;5001884;27;46432;-66
2023/08/24 04:04:50;;;;;;;14.33;10.60;;;19.50;46.90;;;;;;5001132;27;45977;-67
2023/08/24 04:07:16;;;;;;;15.50;12.10;;;19.40;47.10;;;;;;5001874;27;46635;-67
2023/08/24 04:09:41;;;;;;;18.90;11.47;;;19.40;47.10;;;;;;5002206;27;46198;-67
2023/08/24 04:12:07;;;;;;;18.43;12.87;;;19.40;47.10;;;;;;5002067;27;48247;-67
2023/08/24 04:14:33;;;;;;;14.53;11.30;;;19.40;47.10;;;;;;5002315;27;46571;-66
2023/08/24 04:16:58;;;;;;;13.30;10.40;;;19.40;47.10;;;;;;5001198;27;46490;-67
2023/08/24 04:19:24;;;;;;;11.70;9.63;;;19.50;47.20;;;;;;5004256;27;46460;-67
2023/08/24 04:21:50;;;;;;;15.40;10.87;;;19.60;47.30;;;;;;5001973;27;46480;-67
2023/08/24 04:24:15;;;;;;;15.10;10.70;;;19.50;47.20;;;;;;5001246;27;46445;-68
2023/08/24 04:26:41;;;;;;;16.00;10.30;;;19.50;47.20;;;;;;5005071;27;46474;-68
2023/08/24 04:29:06;;;;;;;15.10;10.80;;;19.50;47.20;;;;;;5004851;27;46617;-67
2023/08/24 04:31:32;;;;;;;12.90;9.83;;;19.50;47.20;;;;;;5004215;27;46556;-66
2023/08/24 04:33:57;;;;;;;23.63;11.03;;;19.60;47.30;;;;;;5003235;27;46485;-65
2023/08/24 04:36:23;;;;;;;18.53;10.00;;;19.60;48.50;;;;;;5001277;27;46438;-67
2023/08/24 04:38:49;;;;;;;19.87;10.17;;;19.60;47.30;;;;;;5001739;27;46452;-66
2023/08/24 04:41:15;;;;;;;14.67;9.17;;;19.60;47.20;;;;;;5004449;27;46457;-66
2023/08/24 04:43:40;;;;;;;13.97;9.90;;;19.60;47.30;;;;;;5002796;27;46436;-67
2023/08/24 04:46:06;;;;;;;14.37;9.37;;;19.60;46.20;;;;;;4997374;27;45874;-68
2023/08/24 04:48:34;;;;;;;16.87;10.57;;;19.60;47.30;;;;;;5004389;27;46828;-68
2023/08/24 04:51:00;;;;;;;13.50;9.73;;;19.70;47.40;;;;;;5001578;27;46488;-66
2023/08/24 04:53:26;;;;;;;18.63;10.70;;;19.70;47.40;;;;;;5001484;27;46505;-68
2023/08/24 04:55:52;;;;;;;16.73;10.60;;;19.80;45.50;;;;;;5005821;27;46451;-68
2023/08/24 04:58:18;;;;;;;12.33;9.20;;;19.80;46.60;;;;;;5004107;27;46545;-67
2023/08/24 05:00:44;;;;;;;17.90;10.10;;;19.90;46.30;;;;;;5005651;27;47017;-67
2023/08/24 05:03:10;;;;;;;15.70;10.33;;;20.00;47.20;;;;;;5005516;27;46728;-67
2023/08/24 05:05:37;;;;;;;12.93;9.77;;;20.00;46.00;;;;;;5005370;27;45813;-67
2023/08/24 05:08:11;;;;;;;15.20;10.30;;;20.10;45.90;;;;;;5003416;27;45836;-67
2023/08/24 05:10:37;;;;;;;14.67;9.87;;;20.20;45.70;;;;;;5006848;27;46784;-68
2023/08/24 05:13:03;;;;;;;19.80;10.10;;;20.30;45.40;;;;;;5005096;27;46423;-65
2023/08/24 05:15:29;;;;;;;15.40;9.50;;;20.40;45.10;;;;;;5002839;27;46206;-66
2023/08/24 05:17:56;;;;;;;20.53;9.90;;;20.40;44.90;;;;;;5006096;27;46505;-65
2023/08/24 05:20:22;;;;;;;13.37;9.43;;;20.50;44.60;;;;;;5005864;27;47235;-67
2023/08/24 05:22:48;;;;;;;15.73;9.23;;;20.70;44.40;;;;;;5006064;27;45793;-68
2023/08/24 05:25:13;;;;;;;13.10;8.77;;;20.80;43.90;;;;;;5004543;27;46392;-67
2023/08/24 05:27:40;;;;;;;11.87;8.77;;;21.10;43.40;;;;;;5004368;27;46441;-67
2023/08/24 05:30:06;;;;;;;12.90;8.33;;;21.30;42.90;;;;;;5009957;27;48083;-68
2023/08/24 05:32:32;;;;;;;20.50;8.73;;;21.60;42.20;;;;;;5006616;27;46426;-67
2023/08/24 05:34:58;;;;;;;12.37;8.10;;;21.80;41.50;;;;;;5006324;27;46661;-66
2023/08/24 05:37:24;;;;;;;12.20;7.77;;;22.00;41.00;;;;;;5005947;27;46426;-67
2023/08/24 05:39:49;;;;;;;18.73;8.70;;;22.50;40.30;;;;;;5005403;27;46440;-67
2023/08/24 05:42:15;;;;;;;10.60;7.67;;;22.90;38.90;;;;;;5004457;27;46600;-67
2023/08/24 05:44:41;;;;;;;12.10;7.63;;;23.30;37.80;;;;;;5004928;27;46544;-66
2023/08/24 05:47:06;;;;;;;21.30;7.93;;;23.80;36.30;;;;;;5005675;27;46441;-66
2023/08/24 05:49:32;;;;;;;10.73;7.10;;;24.20;34.60;;;;;;5003021;27;46473;-66
2023/08/24 05:51:57;;;;;;;11.73;8.00;;;24.70;33.20;;;;;;5004579;27;46665;-74
2023/08/24 05:54:23;;;;;;;14.10;7.80;;;25.10;31.50;;;;;;5007601;27;46560;-68
2023/08/24 05:56:49;;;;;;;12.00;7.67;;;25.50;29.80;;;;;;5003159;27;46901;-65
2023/08/24 05:59:15;;;;;;;9.80;8.13;;;25.70;29.20;;;;;;5003344;27;47105;-64
2023/08/24 06:01:41;;;;;;;13.00;7.97;;;26.10;28.00;;;;;;5005499;27;46500;-69
2023/08/24 06:04:08;;;;;;;17.00;9.40;;;26.60;26.80;;;;;;5003699;27;46425;-64
2023/08/24 06:06:34;;;;;;;12.60;8.33;;;27.10;24.90;;;;;;4999708;27;46856;-66
2023/08/24 06:08:59;;;;;;;12.30;9.37;;;27.50;23.40;;;;;;5001519;27;46407;-67
2023/08/24 06:11:25;;;;;;;14.17;9.60;;;27.50;22.30;;;;;;5013001;27;46540;-66
2023/08/24 06:13:53;;;;;;;16.87;9.50;;;27.80;19.40;;;;;;5028423;22;47441;-68
2023/08/24 06:16:19;;;;;;;12.30;9.27;;;27.80;19.10;;;;;;5053556;27;46719;-70
2023/08/24 06:18:45;;;;;;;21.13;9.40;;;27.80;20.10;;;;;;5071521;27;46445;-69
2023/08/24 06:21:10;;;;;;;17.60;9.17;;;27.80;19.70;;;;;;5071866;27;46773;-69
2023/08/24 06:23:36;;;;;;;18.80;9.77;;;27.20;20.60;;;;;;5071427;27;46811;-70
2023/08/24 06:26:02;;;;;;;13.60;8.80;;;26.50;21.30;;;;;;5072202;27;46666;-70
2023/08/24 06:28:27;;;;;;;13.63;9.47;;;26.50;22.00;;;;;;5069893;27;46657;-69
2023/08/24 06:30:55;;;;;;;14.80;9.80;;;26.30;22.40;;;;;;5076208;27;45787;-70
2023/08/24 06:33:20;;;;;;;19.40;10.70;;;26.10;22.60;;;;;;5071903;27;46540;-67
2023/08/24 06:35:46;;;;;;;23.93;10.70;;;25.90;23.20;;;;;;5069355;27;46479;-72
2023/08/24 06:38:13;;;;;;;21.23;9.73;;;25.80;23.30;;;;;;5034975;27;46994;-69
2023/08/24 06:40:39;;;;;;;15.70;10.30;;;25.80;23.30;;;;;;4991584;28;46788;-70
2023/08/24 06:43:05;;;;;;;17.00;10.10;;;26.00;22.70;;;;;;5013150;28;46417;-70
2023/08/24 06:45:31;;;;;;;13.00;8.50;;;26.70;21.00;;;;;;5008750;28;46195;-69
2023/08/24 06:47:57;;;;;;;18.87;9.47;;;26.70;20.90;;;;;;5007712;28;47062;-71
2023/08/24 06:50:22;;;;;;;13.80;8.83;;;26.50;21.80;;;;;;5012688;28;46957;-68
2023/08/24 06:52:48;;;;;;;10.80;9.20;;;26.50;22.30;;;;;;5009322;28;46585;-71
2023/08/24 06:55:14;;;;;;;16.20;9.97;;;26.30;22.40;;;;;;5009255;28;46479;-65
2023/08/24 06:57:40;;;;;;;9.80;7.90;;;26.10;22.80;;;;;;5009053;28;47124;-66
2023/08/24 07:00:08;;;;;;;14.17;9.17;;;26.10;23.10;;;;;;5008031;28;46540;-65
2023/08/24 07:02:36;;;;;;;11.27;8.90;;;26.20;23.20;;;;;;5011187;28;46425;-65
2023/08/24 07:05:04;;;;;;;22.03;8.53;;;26.00;22.90;;;;;;5013594;28;46872;-66
2023/08/24 07:07:30;;;;;;;14.77;8.77;;;26.20;23.20;;;;;;5009422;28;47451;-66
2023/08/24 07:09:56;;;;;;;17.80;8.03;;;26.30;23.00;;;;;;5008752;28;45809;-66
2023/08/24 07:12:21;;;;;;;15.03;8.10;;;26.50;22.90;;;;;;4992418;28;46393;-66
2023/08/24 07:14:47;;;;;;;16.23;8.33;;;26.60;22.60;;;;;;5008511;28;46529;-66
2023/08/24 07:17:12;;;;;;;11.70;7.60;;;26.60;22.60;;;;;;5010649;28;46475;-66
2023/08/24 07:19:38;;;;;;;11.07;7.30;;;26.70;22.60;;;;;;5010874;28;46714;-65
2023/08/24 07:22:03;;;;;;;10.83;7.20;;;26.80;22.40;;;;;;5012436;28;46691;-65
2023/08/24 07:24:30;;;;;;;15.47;7.10;;;26.90;22.10;;;;;;5009584;28;45983;-66
2023/08/24 07:26:55;;;;;;;10.50;7.33;;;27.00;22.00;;;;;;5006598;28;46675;-66
2023/08/24 07:29:21;;;;;;;13.27;7.63;;;27.00;22.00;;;;;;5010570;28;46684;-66
2023/08/24 07:31:47;;;;;;;11.27;7.00;;;27.10;21.70;;;;;;5011292;28;46566;-64
2023/08/24 07:34:14;;;;;;;8.70;6.23;;;27.30;21.50;;;;;;5010676;28;45879;-65
2023/08/24 07:36:39;;;;;;;12.23;7.17;;;27.30;21.40;;;;;;4997260;28;46473;-66
2023/08/24 07:39:05;;;;;;;10.60;7.77;;;27.40;21.40;;;;;;5008511;28;46423;-64
2023/08/24 07:41:31;;;;;;;15.77;8.37;;;27.50;21.10;;;;;;5008370;28;45961;-65
2023/08/24 07:43:56;;;;;;;10.17;8.00;;;27.60;21.00;;;;;;5011435;28;46710;-66
2023/08/24 07:46:22;;;;;;;14.23;8.00;;;27.70;20.80;;;;;;5009200;28;47043;-64
2023/08/24 07:48:47;;;;;;;17.43;7.20;;;27.90;20.60;;;;;;5011291;28;46665;-65
2023/08/24 07:51:13;;;;;;;10.70;8.40;;;28.10;20.30;;;;;;5009028;28;46525;-65
2023/08/24 07:53:39;;;;;;;9.70;6.77;;;28.10;20.10;;;;;;5008742;28;46770;-65
2023/08/24 07:56:05;;;;;;;11.43;7.03;;;28.30;19.80;;;;;;5009928;28;46464;-66
2023/08/24 07:58:31;;;;;;;9.07;6.40;;;28.50;19.30;;;;;;5009101;28;46443;-65
2023/08/24 08:00:58;;;;;;;13.43;6.40;;;28.60;19.10;;;;;;5012187;28;46683;-67
2023/08/24 08:03:24;;;;;;;7.80;5.50;;;28.70;18.70;;;;;;5008872;28;46774;-66
2023/08/24 08:05:50;;;;;;;10.60;6.47;;;28.90;18.30;;;;;;5009015;28;47012;-65
2023/08/24 08:08:16;;;;;;;9.57;6.40;;;29.00;17.80;;;;;;5008588;28;46487;-66
2023/08/24 08:10:41;;;;;;;10.83;5.80;;;29.10;17.50;;;;;;5008592;28;46751;-65
2023/08/24 08:13:08;;;;;;;6.77;5.63;;;29.30;17.20;;;;;;5011317;28;46372;-65
2023/08/24 08:15:34;;;;;;;11.43;6.50;;;29.40;17.20;;;;;;5009325;28;46601;-65
2023/08/24 08:17:59;;;;;;;10.73;6.93;;;29.60;16.40;;;;;;5010003;28;46774;-65
2023/08/24 08:20:25;;;;;;;11.13;6.20;;;29.60;16.10;;;;;;5008507;28;45891;-65
2023/08/24 08:22:51;;;;;;;12.53;6.27;;;29.60;15.90;;;;;;5006350;28;46475;-65
2023/08/24 08:25:21;;;;;;;9.50;6.83;;;29.60;15.40;;;;;;5005963;28;46216;-64
2023/08/24 08:27:47;;;;;;;10.97;6.07;;;29.70;15.00;;;;;;5007502;28;45914;-64
2023/08/24 08:30:14;;;;;;;9.20;6.00;;;29.80;14.80;;;;;;5007719;28;46500;-66
2023/08/24 08:32:40;;;;;;;10.23;6.77;;;29.90;14.10;;;;;;5006615;28;46623;-66
2023/08/24 08:35:06;;;;;;;11.73;6.50;;;30.20;13.90;;;;;;5007691;28;46984;-66
2023/08/24 08:37:34;;;;;;;14.33;6.93;;;30.40;13.30;;;;;;5013263;28;46735;-66
2023/08/24 08:39:59;;;;;;;11.80;6.57;;;30.70;12.80;;;;;;5012292;28;46627;-65
2023/08/24 08:42:25;;;;;;;12.60;5.80;;;31.10;11.80;;;;;;5010680;28;46449;-65
2023/08/24 08:44:54;;;;;;;20.10;6.90;;;31.30;12.10;;;;;;5009569;28;47264;-64
2023/08/24 08:47:20;;;;;;;8.43;6.13;;;31.40;10.60;;;;;;5011903;28;46749;-64
2023/08/24 08:49:48;;;;;;;10.57;5.97;;;31.20;10.30;;;;;;5009322;28;46436;-66
2023/08/24 08:52:14;;;;;;;12.77;5.80;;;31.00;10.70;;;;;;5012246;28;46646;-65
2023/08/24 08:54:40;;;;;;;9.00;5.90;;;30.90;10.70;;;;;;5010877;28;46414;-65
2023/08/24 08:57:07;;;;;;;13.27;6.97;;;31.10;10.60;;;;;;5010320;28;46503;-64
2023/08/24 08:59:33;;;;;;;10.87;6.20;;;31.20;10.60;;;;;;5010687;28;46457;-64
2023/08/24 09:02:01;;;;;;;10.30;6.07;;;31.10;10.70;;;;;;5012438;28;46580;-65
2023/08/24 09:04:31;;;;;;;10.90;6.10;;;31.30;10.30;;;;;;5014759;28;45964;-67
2023/08/24 09:06:57;;;;;;;8.33;5.00;;;31.10;10.00;;;;;;5011913;28;45739;-65
2023/08/24 09:09:24;;;;;;;10.90;5.40;;;30.90;10.40;;;;;;5011620;28;46529;-66
2023/08/24 09:11:50;;;;;;;12.37;6.53;;;30.70;10.50;;;;;;4997860;28;46678;-69
2023/08/24 09:14:16;;;;;;;9.60;5.83;;;30.60;10.90;;;;;;5012201;28;46430;-69
2023/08/24 09:16:42;;;;;;;12.77;5.50;;;30.60;10.90;;;;;;5012158;28;46603;-68
2023/08/24 09:19:11;;;;;;;17.50;6.70;;;30.60;10.80;;;;;;5013051;28;46285;-68
2023/08/24 09:21:39;;;;;;;11.87;5.67;;;30.80;11.00;;;;;;5011387;28;46460;-69
2023/08/24 09:24:05;;;;;;;20.13;6.20;;;30.70;10.90;;;;;;5012075;28;46734;-68
2023/08/24 09:26:36;;;;;;;15.23;6.60;;;30.70;10.70;;;;;;5009599;28;46428;-70
2023/08/24 09:29:16;;;;;;;13.80;6.23;;;30.60;10.80;;;;;;5013150;28;46574;-71
2023/08/24 09:31:45;;;;;;;10.97;6.17;;;30.60;10.80;;;;;;5011829;28;46537;-67
2023/08/24 09:34:11;;;;;;;11.43;6.30;;;30.80;10.90;;;;;;4993378;28;46778;-67
2023/08/24 09:36:39;;;;;;;15.13;7.73;;;31.00;10.40;;;;;;5008960;28;45923;-69
2023/08/24 09:39:05;;;;;;;11.23;6.20;;;30.90;10.50;;;;;;5011828;28;46272;-69
2023/08/24 09:41:42;;;;;;;13.20;6.20;;;31.10;10.50;;;;;;5011578;28;46560;-68
2023/08/24 09:44:08;;;;;;;9.93;5.50;;;31.10;9.90;;;;;;5010948;28;47222;-70
2023/08/24 09:46:37;;;;;;;14.43;6.40;;;31.10;10.00;;;;;;5007719;28;46454;-68
2023/08/24 09:49:05;;;;;;;7.90;5.70;;;31.00;9.80;;;;;;5013127;28;46401;-67
2023/08/24 09:51:33;;;;;;;11.33;5.80;;;31.10;9.80;;;;;;5008821;28;46558;-67
2023/08/24 09:54:02;;;;;;;12.00;5.60;;;31.10;9.50;;;;;;4998208;28;46599;-66
2023/08/24 09:56:28;;;;;;;12.57;5.93;;;31.20;9.10;;;;;;5025892;28;46716;-66
2023/08/24 09:58:56;;;;;;;14.00;5.90;;;31.40;8.60;;;;;;5009977;28;46634;-68
2023/08/24 10:01:24;;;;;;;10.23;5.33;;;31.50;8.40;;;;;;5012189;28;46690;-69
2023/08/24 10:03:52;;;;;;;12.93;5.27;;;31.50;8.10;;;;;;5012628;28;46448;-67
2023/08/24 10:06:21;;;;;;;7.87;5.10;;;31.50;8.00;;;;;;5009048;28;46526;-67
2023/08/24 10:08:54;;;;;;;10.93;5.00;;;31.40;7.60;;;;;;5011074;28;46814;-69
2023/08/24 10:11:25;;;;;;;6.83;4.77;;;31.50;6.90;;;;;;5009526;28;46571;-70
2023/08/24 10:14:15;;;;;;;11.40;6.20;;;31.70;7.10;;;;;;5010127;28;46421;-68
2023/08/24 10:16:43;;;;;;;12.33;5.07;;;31.80;6.80;;;;;;5012434;28;46475;-69
2023/08/24 10:19:09;;;;;;;13.83;5.60;;;31.90;7.10;;;;;;4994522;28;45881;-67
2023/08/24 10:21:37;;;;;;;8.90;5.70;;;32.00;6.30;;;;;;5010765;28;46430;-70
2023/08/24 10:24:03;;;;;;;6.97;4.50;;;31.90;6.20;;;;;;5012425;28;47145;-66
2023/08/24 10:26:29;;;;;;;9.03;4.67;;;31.90;5.70;;;;;;5009524;28;46586;-65
2023/08/24 10:28:55;;;;;;;15.83;5.17;;;32.00;5.60;;;;;;5012727;28;46515;-65
2023/08/24 10:31:22;;;;;;;9.63;5.00;;;32.00;5.20;;;;;;5010283;28;46507;-67
2023/08/24 10:33:48;;;;;;;10.00;4.90;;;32.20;5.20;;;;;;5010746;28;46558;-65
2023/08/24 10:36:14;;;;;;;7.83;4.60;;;32.40;4.60;;;;;;5007534;28;46416;-65
2023/08/24 10:38:44;;;;;;;8.00;5.00;;;32.30;4.30;;;;;;5010326;28;46792;-64
2023/08/24 10:41:13;;;;;;;8.30;5.10;;;32.50;4.10;;;;;;5009659;28;46406;-65
2023/08/24 10:43:40;;;;;;;7.83;4.50;;;32.40;4.20;;;;;;5010092;28;46450;-65
2023/08/24 10:46:13;;;;;;;12.80;4.90;;;32.50;4.10;;;;;;5009172;28;46679;-65
2023/08/24 10:48:41;;;;;;;10.30;4.70;;;32.50;3.20;;;;;;5010266;28;46687;-64
2023/08/24 10:51:25;;;;;;;11.37;4.77;;;32.50;3.20;;;;;;5010620;28;46594;-65
2023/08/24 10:53:55;;;;;;;11.53;4.67;;;32.60;3.20;;;;;;5009188;28;46436;-64
2023/08/24 10:56:25;;;;;;;9.53;4.63;;;32.70;2.90;;;;;;5012292;28;46487;-64
2023/08/24 10:59:19;;;;;;;6.60;4.47;;;32.80;3.00;;;;;;5008106;28;46250;-64
2023/08/24 11:01:53;;;;;;;7.30;4.80;;;32.80;2.10;;;;;;5009436;28;46444;-65
2023/08/24 11:04:20;;;;;;;11.00;4.80;;;32.90;2.10;;;;;;5008691;28;47166;-65
2023/08/24 11:06:53;;;;;;;11.47;4.37;;;32.80;2.00;;;;;;5007005;28;46555;-64
2023/08/24 11:09:19;;;;;;;6.87;4.50;;;32.90;1.70;;;;;;5006220;28;46714;-64
2023/08/24 11:12:01;;;;;;;12.73;5.00;;;32.90;1.60;;;;;;5009838;28;46724;-64
2023/08/24 11:14:30;;;;;;;9.37;4.30;;;33.10;1.00;;;;;;5006972;28;47040;-64
2023/08/24 11:17:00;;;;;;;9.57;5.47;;;33.20;1.00;;;;;;5008760;28;46558;-66
2023/08/24 11:19:27;;;;;;;10.03;5.00;;;33.00;1.00;;;;;;5008882;28;46577;-66
2023/08/24 11:21:53;;;;;;;9.27;5.00;;;33.10;1.30;;;;;;5009585;28;46668;-65
2023/08/24 11:24:19;;;;;;;9.60;4.40;;;33.20;1.10;;;;;;5008182;28;47955;-66
2023/08/24 11:26:46;;;;;;;10.90;4.90;;;33.20;1.20;;;;;;5011641;28;46560;-70
2023/08/24 11:29:13;;;;;;;9.27;4.53;;;33.30;1.00;;;;;;5010960;28;45842;-69
2023/08/24 11:31:39;;;;;;;6.63;4.00;;;33.20;1.00;;;;;;5011387;28;46907;-68
2023/08/24 11:34:07;;;;;;;6.20;4.53;;;33.10;1.00;;;;;;5007368;28;46872;-68
2023/08/24 11:36:47;;;;;;;16.83;5.60;;;33.20;1.00;;;;;;5010325;28;46444;-69
2023/08/24 11:39:19;;;;;;;14.17;4.80;;;33.40;1.00;;;;;;5011927;28;46547;-70
2023/08/24 11:41:58;;;;;;;7.80;3.90;;;33.40;1.00;;;;;;5011011;28;46616;-68
2023/08/24 11:44:23;;;;;;;6.50;4.10;;;33.30;1.00;;;;;;5005482;28;46765;-69
2023/08/24 11:46:49;;;;;;;8.87;4.30;;;33.30;1.00;;;;;;4997249;28;46526;-69
2023/08/24 11:49:15;;;;;;;13.17;4.57;;;33.20;1.00;;;;;;5010631;28;46614;-70
2023/08/24 11:51:41;;;;;;;12.63;4.47;;;33.30;1.00;;;;;;5009171;28;46598;-70
2023/08/24 11:54:06;;;;;;;9.13;4.30;;;33.40;1.00;;;;;;5007703;28;46437;-69
2023/08/24 11:56:32;;;;;;;12.73;4.60;;;33.40;1.00;;;;;;5008382;28;46481;-69
2023/08/24 11:58:57;;;;;;;8.83;4.43;;;33.50;1.00;;;;;;5012666;28;46525;-69
2023/08/24 12:01:24;;;;;;;15.47;4.63;;;33.70;1.00;;;;;;4999115;28;46503;-68
2023/08/24 12:03:50;;;;;;;10.10;4.60;;;33.80;1.00;;;;;;5010134;28;46982;-69
2023/08/24 12:06:17;;;;;;;13.23;3.90;;;34.00;1.00;;;;;;5014515;28;46707;-69
2023/08/24 12:08:45;;;;;;;12.73;4.80;;;34.10;1.00;;;;;;5010865;28;46464;-69
2023/08/24 12:11:18;;;;;;;11.03;4.27;;;34.10;1.00;;;;;;5010399;28;46633;-68
2023/08/24 12:13:54;;;;;;;10.53;4.63;;;34.10;1.00;;;;;;5010910;28;46445;-69
2023/08/24 12:16:22;;;;;;;11.43;4.40;;;34.20;1.00;;;;;;5011494;28;46476;-68
2023/08/24 12:18:51;;;;;;;8.03;4.70;;;34.00;1.00;;;;;;5013914;28;46654;-70
2023/08/24 12:21:16;;;;;;;9.57;5.00;;;34.00;1.00;;;;;;5010836;28;46675;-68
2023/08/24 12:23:42;;;;;;;11.83;4.40;;;33.90;1.00;;;;;;5008017;28;46369;-68
2023/08/24 12:26:08;;;;;;;8.43;4.80;;;34.20;1.00;;;;;;5007689;28;46907;-66
2023/08/24 12:28:33;;;;;;;10.23;5.30;;;34.20;1.00;;;;;;5004981;28;46833;-68
2023/08/24 12:31:03;;;;;;;12.80;4.07;;;34.40;1.00;;;;;;5005998;28;46602;-66
2023/08/24 12:33:33;;;;;;;13.20;3.80;;;34.40;1.00;;;;;;5008111;28;46714;-66
2023/08/24 12:35:59;;;;;;;14.93;3.30;;;34.60;1.00;;;;;;5006797;28;46471;-66
2023/08/24 12:38:27;;;;;;;17.80;4.03;;;34.70;1.00;;;;;;5004843;28;46460;-67
2023/08/24 12:40:53;;;;;;;10.87;3.50;;;34.60;1.00;;;;;;5009510;28;46505;-66
2023/08/24 12:43:19;;;;;;;14.23;3.90;;;34.60;1.00;;;;;;5008749;28;46739;-64